createdAt,value
2019-01-27T00:01:44.205Z,4.80
2019-01-27T00:07:48.760Z,4.90
2019-01-27T00:13:53.769Z,4.90
2019-01-27T00:19:58.315Z,4.90
2019-01-27T00:26:02.957Z,5.00
2019-01-27T00:32:07.773Z,5.10
2019-01-27T00:38:13.054Z,5.00
2019-01-27T00:44:17.648Z,5.10
2019-01-27T00:50:22.244Z,5.10
2019-01-27T00:56:26.952Z,5.10
2019-01-27T01:02:32.491Z,5.10
2019-01-27T01:08:37.184Z,5.20
2019-01-27T01:14:41.953Z,5.20
2019-01-27T01:20:46.825Z,5.20
2019-01-27T01:26:51.556Z,5.20
2019-01-27T01:32:56.430Z,5.20
2019-01-27T01:39:00.979Z,5.20
2019-01-27T01:45:10.826Z,5.20
2019-01-27T01:51:15.658Z,5.20
2019-01-27T01:57:20.220Z,5.10
2019-01-27T02:03:24.802Z,5.10
2019-01-27T02:09:29.361Z,5.10
2019-01-27T02:15:47.084Z,5.10
2019-01-27T02:21:51.724Z,5.10
2019-01-27T02:27:57.804Z,5.10
2019-01-27T02:34:02.690Z,5.10
2019-01-27T02:40:10.111Z,5.20
2019-01-27T02:46:14.668Z,5.10
2019-01-27T02:52:19.227Z,5.10
2019-01-27T02:58:23.767Z,5.00
2019-01-27T03:04:28.328Z,4.90
2019-01-27T03:10:33.091Z,4.90
2019-01-27T03:16:37.666Z,4.90
2019-01-27T03:22:45.102Z,4.80
2019-01-27T03:28:49.991Z,4.70
2019-01-27T03:34:54.752Z,4.70
2019-01-27T03:40:59.445Z,4.70
2019-01-27T03:47:04.126Z,4.70
2019-01-27T03:53:08.948Z,4.70
2019-01-27T03:59:13.935Z,4.70
2019-01-27T04:05:18.714Z,4.60
2019-01-27T04:11:23.628Z,4.70
2019-01-27T04:17:28.202Z,4.70
2019-01-27T04:23:32.743Z,4.70
2019-01-27T04:29:37.430Z,4.80
2019-01-27T04:35:42.022Z,4.70
2019-01-27T04:41:46.716Z,4.70
2019-01-27T04:47:56.799Z,4.70
2019-01-27T04:54:01.335Z,4.70
2019-01-27T05:00:13.513Z,4.70
2019-01-27T05:06:18.173Z,4.70
2019-01-27T05:12:22.717Z,4.70
2019-01-27T05:18:28.055Z,4.70
2019-01-27T05:24:32.604Z,4.60
2019-01-27T05:30:37.759Z,4.60
2019-01-27T05:36:42.676Z,4.70
2019-01-27T05:42:47.274Z,4.70
2019-01-27T05:48:51.969Z,4.70
2019-01-27T05:54:56.708Z,4.70
2019-01-27T06:01:01.456Z,4.70
2019-01-27T06:07:06.064Z,4.70
2019-01-27T06:13:11.052Z,4.70
2019-01-27T06:19:20.239Z,4.80
2019-01-27T06:25:26.187Z,4.80
2019-01-27T06:31:31.279Z,4.70
2019-01-27T06:37:36.097Z,4.70
2019-01-27T06:43:40.956Z,4.70
2019-01-27T06:49:45.673Z,4.70
2019-01-27T06:55:50.216Z,4.70
2019-01-27T07:01:56.664Z,4.60
2019-01-27T07:08:01.061Z,4.60
2019-01-27T07:14:27.950Z,4.50
2019-01-27T07:20:34.370Z,4.60
2019-01-27T07:26:55.241Z,4.60
2019-01-27T07:33:15.990Z,4.60
2019-01-27T07:39:28.053Z,4.70
2019-01-27T07:45:34.332Z,4.70
2019-01-27T07:51:43.320Z,4.70
2019-01-27T07:57:52.482Z,4.90
2019-01-27T08:04:01.373Z,4.90
2019-01-27T08:10:11.297Z,4.90
2019-01-27T08:16:23.072Z,4.90
2019-01-27T08:22:32.334Z,4.90
2019-01-27T08:28:39.811Z,5.00
2019-01-27T08:35:01.178Z,5.00
2019-01-27T08:41:07.361Z,5.10
2019-01-27T08:47:13.242Z,5.10
2019-01-27T08:53:17.981Z,5.20
2019-01-27T08:59:22.687Z,5.20
2019-01-27T09:05:28.891Z,5.30
2019-01-27T09:11:41.210Z,5.30
2019-01-27T09:17:47.830Z,5.30
2019-01-27T09:23:54.086Z,5.40
2019-01-27T09:30:00.605Z,5.50
2019-01-27T09:36:07.400Z,5.50
2019-01-27T09:42:19.188Z,5.60
2019-01-27T09:48:28.367Z,5.70
2019-01-27T09:54:46.178Z,5.80
2019-01-27T10:01:07.520Z,5.90
2019-01-27T10:07:31.716Z,6.10
2019-01-27T10:13:43.821Z,6.30
2019-01-27T10:19:50.015Z,6.50
2019-01-27T10:25:56.494Z,6.70
2019-01-27T10:32:02.728Z,6.70
2019-01-27T10:38:12.001Z,6.80
2019-01-27T10:44:27.922Z,6.90
2019-01-27T10:50:34.155Z,6.80
2019-01-27T10:56:42.901Z,6.80
2019-01-27T11:02:56.409Z,6.90
2019-01-27T11:09:02.598Z,7.00
2019-01-27T11:15:17.340Z,7.10
2019-01-27T11:21:23.709Z,7.10
2019-01-27T11:27:35.001Z,7.20
2019-01-27T11:33:47.141Z,7.20
2019-01-27T11:40:08.139Z,7.30
2019-01-27T11:46:27.515Z,7.30
2019-01-27T11:52:32.201Z,7.20
2019-01-27T11:58:36.869Z,7.40
2019-01-27T12:04:43.174Z,7.70
2019-01-27T12:10:47.822Z,7.70
2019-01-27T12:16:52.401Z,7.80
2019-01-27T12:22:56.973Z,7.80
2019-01-27T12:29:01.588Z,8.00
2019-01-27T12:35:09.178Z,8.30
2019-01-27T12:41:13.809Z,8.00
2019-01-27T12:47:18.355Z,7.90
2019-01-27T12:53:22.970Z,7.80
2019-01-27T12:59:27.603Z,7.90
2019-01-27T13:05:35.396Z,7.90
2019-01-27T13:11:40.475Z,7.90
2019-01-27T13:17:48.514Z,7.90
2019-01-27T13:23:53.425Z,8.00
2019-01-27T13:29:57.972Z,7.80
2019-01-27T13:36:03.140Z,7.60
2019-01-27T13:42:07.921Z,7.60
2019-01-27T13:48:12.885Z,7.50
2019-01-27T13:54:17.762Z,7.40
2019-01-27T14:00:29.636Z,7.30
2019-01-27T14:06:34.167Z,7.20
2019-01-27T14:12:38.793Z,7.10
2019-01-27T14:18:44.977Z,7.00
2019-01-27T14:24:49.552Z,6.90
2019-01-27T14:30:54.176Z,6.80
2019-01-27T14:36:58.797Z,6.80
2019-01-27T14:43:03.518Z,6.70
2019-01-27T14:49:08.058Z,6.70
2019-01-27T14:55:17.073Z,6.60
2019-01-27T15:01:21.633Z,6.50
2019-01-27T15:07:26.510Z,6.50
2019-01-27T15:13:31.395Z,6.50
2019-01-27T15:19:35.948Z,6.40
2019-01-27T15:25:40.826Z,6.40
2019-01-27T15:31:45.615Z,6.30
2019-01-27T15:37:50.347Z,6.20
2019-01-27T15:43:55.248Z,6.10
2019-01-27T15:50:00.266Z,6.10
2019-01-27T15:56:05.290Z,6.10
2019-01-27T16:02:13.826Z,6.00
2019-01-27T16:08:18.444Z,6.00
2019-01-27T16:14:23.024Z,6.00
2019-01-27T16:20:28.529Z,5.90
2019-01-27T16:26:33.442Z,5.90
2019-01-27T16:32:38.051Z,5.90
2019-01-27T16:38:46.475Z,5.90
2019-01-27T16:44:51.354Z,5.90
2019-01-27T16:50:59.736Z,5.90
2019-01-27T16:57:04.523Z,5.90
2019-01-27T17:03:09.691Z,5.90
2019-01-27T17:09:14.560Z,6.00
2019-01-27T17:15:19.509Z,6.00
2019-01-27T17:21:24.054Z,6.00
2019-01-27T17:27:28.684Z,6.00
2019-01-27T17:33:33.291Z,5.90
2019-01-27T17:39:37.847Z,5.90
2019-01-27T17:45:42.475Z,5.90
2019-01-27T17:51:47.202Z,5.90
2019-01-27T17:57:56.265Z,5.80
2019-01-27T18:04:00.669Z,5.90
2019-01-27T18:10:14.253Z,5.90
2019-01-27T18:16:21.672Z,6.00
2019-01-27T18:22:26.464Z,5.90
2019-01-27T18:28:31.104Z,5.90
2019-01-27T18:34:35.706Z,5.90
2019-01-27T18:40:41.069Z,5.90
2019-01-27T18:46:45.775Z,5.80
2019-01-27T18:52:52.026Z,5.80
2019-01-27T18:59:16.470Z,5.80
2019-01-27T19:05:34.766Z,5.80
2019-01-27T19:11:47.035Z,5.80
2019-01-27T19:18:11.820Z,5.80
2019-01-27T19:24:20.953Z,5.80
2019-01-27T19:30:30.265Z,5.70
2019-01-27T19:36:45.316Z,5.70
2019-01-27T19:42:54.740Z,5.70
2019-01-27T19:49:03.850Z,5.60
2019-01-27T19:55:27.497Z,5.50
2019-01-27T20:01:49.667Z,5.40
2019-01-27T20:07:58.344Z,5.30
2019-01-27T20:14:07.193Z,5.20
2019-01-27T20:20:18.940Z,5.20
2019-01-27T20:26:25.404Z,5.10
2019-01-27T20:32:34.565Z,4.90
2019-01-27T20:38:43.588Z,4.40
2019-01-27T20:45:02.293Z,4.10
2019-01-27T20:51:10.635Z,3.90
2019-01-27T20:57:22.658Z,3.80
2019-01-27T21:03:28.933Z,3.70
2019-01-27T21:09:49.141Z,3.70
2019-01-27T21:15:58.154Z,3.70
2019-01-27T21:22:05.678Z,3.60
2019-01-27T21:28:10.329Z,3.70
2019-01-27T21:34:14.977Z,3.70
2019-01-27T21:40:20.025Z,3.70
2019-01-27T21:46:25.163Z,3.70
2019-01-27T21:52:29.722Z,3.70
2019-01-27T21:58:34.304Z,3.80
2019-01-27T22:04:38.860Z,3.80
2019-01-27T22:10:43.639Z,3.80
2019-01-27T22:16:49.583Z,3.80
2019-01-27T22:22:54.214Z,3.80
2019-01-27T22:28:58.762Z,3.90
2019-01-27T22:35:03.379Z,3.90
2019-01-27T22:41:09.087Z,3.90
2019-01-27T22:47:14.046Z,3.90
2019-01-27T22:53:18.676Z,3.90
2019-01-27T22:59:23.416Z,3.90
2019-01-27T23:05:28.561Z,3.90
2019-01-27T23:11:33.163Z,3.90
2019-01-27T23:17:37.858Z,3.90
2019-01-27T23:23:43.557Z,3.80
2019-01-27T23:29:48.281Z,3.80
2019-01-27T23:42:03.140Z,3.80
2019-01-27T23:48:07.887Z,3.70
2019-01-27T23:54:12.839Z,3.70
